sensor_id;sensor_type;location;lat;lon;timestamp;P1;durP1;ratioP1;P2;durP2;ratioP2
61960;SDS011;47923;42.506;24.192;2023-02-11T00:00:11;99.65;;;52.58;;
61960;SDS011;47923;42.506;24.192;2023-02-11T00:02:37;93.50;;;54.35;;
61960;SDS011;47923;42.506;24.192;2023-02-11T00:05:02;99.40;;;55.47;;
61960;SDS011;47923;42.506;24.192;2023-02-11T00:07:29;95.63;;;59.63;;
61960;SDS011;47923;42.506;24.192;2023-02-11T00:09:55;223.70;;;102.07;;
61960;SDS011;47923;42.506;24.192;2023-02-11T00:12:20;115.22;;;59.00;;
61960;SDS011;47923;42.506;24.192;2023-02-11T00:14:46;105.22;;;55.38;;
61960;SDS011;47923;42.506;24.192;2023-02-11T00:17:11;121.63;;;59.78;;
61960;SDS011;47923;42.506;24.192;2023-02-11T00:19:37;103.60;;;53.20;;
61960;SDS011;47923;42.506;24.192;2023-02-11T00:22:03;105.78;;;56.28;;
61960;SDS011;47923;42.506;24.192;2023-02-11T00:24:29;93.90;;;48.15;;
61960;SDS011;47923;42.506;24.192;2023-02-11T00:26:54;103.93;;;52.28;;
61960;SDS011;47923;42.506;24.192;2023-02-11T00:29:20;150.95;;;77.72;;
61960;SDS011;47923;42.506;24.192;2023-02-11T00:31:46;141.10;;;70.55;;
61960;SDS011;47923;42.506;24.192;2023-02-11T00:34:11;133.57;;;70.43;;
61960;SDS011;47923;42.506;24.192;2023-02-11T00:36:37;126.43;;;65.35;;
61960;SDS011;47923;42.506;24.192;2023-02-11T00:39:03;127.68;;;66.35;;
61960;SDS011;47923;42.506;24.192;2023-02-11T00:41:29;111.70;;;58.33;;
61960;SDS011;47923;42.506;24.192;2023-02-11T00:43:54;107.18;;;54.03;;
61960;SDS011;47923;42.506;24.192;2023-02-11T00:46:20;115.00;;;56.33;;
61960;SDS011;47923;42.506;24.192;2023-02-11T00:48:46;101.82;;;52.92;;
61960;SDS011;47923;42.506;24.192;2023-02-11T00:51:11;93.30;;;48.78;;
61960;SDS011;47923;42.506;24.192;2023-02-11T00:53:37;132.85;;;71.47;;
61960;SDS011;47923;42.506;24.192;2023-02-11T00:56:03;103.10;;;55.50;;
61960;SDS011;47923;42.506;24.192;2023-02-11T00:58:29;105.45;;;61.63;;
61960;SDS011;47923;42.506;24.192;2023-02-11T01:00:55;95.95;;;55.28;;
61960;SDS011;47923;42.506;24.192;2023-02-11T01:03:20;108.40;;;61.90;;
61960;SDS011;47923;42.506;24.192;2023-02-11T01:05:46;117.70;;;58.78;;
61960;SDS011;47923;42.506;24.192;2023-02-11T01:08:11;109.28;;;55.63;;
61960;SDS011;47923;42.506;24.192;2023-02-11T01:10:37;85.50;;;45.97;;
61960;SDS011;47923;42.506;24.192;2023-02-11T01:13:02;86.80;;;46.30;;
61960;SDS011;47923;42.506;24.192;2023-02-11T01:15:28;77.57;;;43.97;;
61960;SDS011;47923;42.506;24.192;2023-02-11T01:17:54;87.88;;;49.15;;
61960;SDS011;47923;42.506;24.192;2023-02-11T01:20:21;75.25;;;41.83;;
61960;SDS011;47923;42.506;24.192;2023-02-11T01:22:48;58.70;;;31.92;;
61960;SDS011;47923;42.506;24.192;2023-02-11T01:25:14;98.20;;;57.35;;
61960;SDS011;47923;42.506;24.192;2023-02-11T01:27:40;100.75;;;60.45;;
61960;SDS011;47923;42.506;24.192;2023-02-11T01:30:06;125.32;;;72.15;;
61960;SDS011;47923;42.506;24.192;2023-02-11T01:32:33;94.70;;;52.00;;
61960;SDS011;47923;42.506;24.192;2023-02-11T01:34:59;96.63;;;54.45;;
61960;SDS011;47923;42.506;24.192;2023-02-11T01:37:24;99.80;;;55.80;;
61960;SDS011;47923;42.506;24.192;2023-02-11T01:39:50;112.63;;;60.60;;
61960;SDS011;47923;42.506;24.192;2023-02-11T01:42:17;114.63;;;57.55;;
61960;SDS011;47923;42.506;24.192;2023-02-11T01:44:44;102.45;;;55.03;;
61960;SDS011;47923;42.506;24.192;2023-02-11T01:47:13;107.20;;;56.55;;
61960;SDS011;47923;42.506;24.192;2023-02-11T01:49:39;81.00;;;41.05;;
61960;SDS011;47923;42.506;24.192;2023-02-11T01:52:17;62.15;;;35.30;;
61960;SDS011;47923;42.506;24.192;2023-02-11T01:54:47;71.55;;;39.67;;
61960;SDS011;47923;42.506;24.192;2023-02-11T01:57:36;62.78;;;36.03;;
61960;SDS011;47923;42.506;24.192;2023-02-11T02:10:34;25.80;;;12.85;;
61960;SDS011;47923;42.506;24.192;2023-02-11T02:13:02;18.35;;;9.57;;
61960;SDS011;47923;42.506;24.192;2023-02-11T02:17:59;34.78;;;18.23;;
61960;SDS011;47923;42.506;24.192;2023-02-11T02:26:17;33.03;;;18.23;;
61960;SDS011;47923;42.506;24.192;2023-02-11T02:34:17;93.63;;;49.63;;
61960;SDS011;47923;42.506;24.192;2023-02-11T02:37:01;80.97;;;46.53;;
61960;SDS011;47923;42.506;24.192;2023-02-11T02:39:32;67.88;;;38.80;;
61960;SDS011;47923;42.506;24.192;2023-02-11T02:42:00;83.90;;;48.38;;
61960;SDS011;47923;42.506;24.192;2023-02-11T02:44:26;82.68;;;46.72;;
61960;SDS011;47923;42.506;24.192;2023-02-11T02:46:52;71.93;;;41.50;;
61960;SDS011;47923;42.506;24.192;2023-02-11T02:49:17;71.07;;;40.42;;
61960;SDS011;47923;42.506;24.192;2023-02-11T02:54:23;72.43;;;40.95;;
61960;SDS011;47923;42.506;24.192;2023-02-11T03:02:17;70.43;;;40.03;;
61960;SDS011;47923;42.506;24.192;2023-02-11T03:04:49;60.05;;;30.92;;
61960;SDS011;47923;42.506;24.192;2023-02-11T03:07:26;51.35;;;27.17;;
61960;SDS011;47923;42.506;24.192;2023-02-11T03:10:01;61.33;;;34.97;;
61960;SDS011;47923;42.506;24.192;2023-02-11T03:12:35;66.40;;;39.63;;
61960;SDS011;47923;42.506;24.192;2023-02-11T03:15:02;62.08;;;37.13;;
61960;SDS011;47923;42.506;24.192;2023-02-11T03:17:30;78.30;;;45.38;;
61960;SDS011;47923;42.506;24.192;2023-02-11T03:19:59;75.85;;;39.42;;
61960;SDS011;47923;42.506;24.192;2023-02-11T03:22:37;62.83;;;37.40;;
61960;SDS011;47923;42.506;24.192;2023-02-11T03:25:07;69.95;;;39.85;;
61960;SDS011;47923;42.506;24.192;2023-02-11T03:27:40;58.08;;;35.58;;
61960;SDS011;47923;42.506;24.192;2023-02-11T03:36:11;43.72;;;22.15;;
61960;SDS011;47923;42.506;24.192;2023-02-11T03:38:46;53.22;;;32.30;;
61960;SDS011;47923;42.506;24.192;2023-02-11T03:41:14;56.13;;;31.27;;
61960;SDS011;47923;42.506;24.192;2023-02-11T03:43:45;49.28;;;27.42;;
61960;SDS011;47923;42.506;24.192;2023-02-11T03:46:15;47.55;;;27.30;;
61960;SDS011;47923;42.506;24.192;2023-02-11T03:48:44;58.67;;;33.75;;
61960;SDS011;47923;42.506;24.192;2023-02-11T03:51:15;59.15;;;31.90;;
61960;SDS011;47923;42.506;24.192;2023-02-11T03:53:42;68.22;;;39.88;;
61960;SDS011;47923;42.506;24.192;2023-02-11T03:56:12;78.65;;;45.40;;
61960;SDS011;47923;42.506;24.192;2023-02-11T03:58:43;77.00;;;42.78;;
61960;SDS011;47923;42.506;24.192;2023-02-11T04:01:10;78.75;;;45.47;;
61960;SDS011;47923;42.506;24.192;2023-02-11T04:03:36;83.82;;;44.58;;
61960;SDS011;47923;42.506;24.192;2023-02-11T04:06:01;96.28;;;54.42;;
61960;SDS011;47923;42.506;24.192;2023-02-11T04:08:27;99.80;;;51.85;;
61960;SDS011;47923;42.506;24.192;2023-02-11T04:10:52;72.75;;;43.38;;
61960;SDS011;47923;42.506;24.192;2023-02-11T04:13:17;72.65;;;40.15;;
61960;SDS011;47923;42.506;24.192;2023-02-11T04:15:43;68.32;;;37.67;;
61960;SDS011;47923;42.506;24.192;2023-02-11T04:18:09;62.92;;;34.97;;
61960;SDS011;47923;42.506;24.192;2023-02-11T04:20:34;91.18;;;49.03;;
61960;SDS011;47923;42.506;24.192;2023-02-11T04:23:00;137.88;;;65.05;;
61960;SDS011;47923;42.506;24.192;2023-02-11T04:25:25;85.38;;;43.03;;
61960;SDS011;47923;42.506;24.192;2023-02-11T04:27:51;86.30;;;40.40;;
61960;SDS011;47923;42.506;24.192;2023-02-11T04:30:16;73.68;;;37.25;;
61960;SDS011;47923;42.506;24.192;2023-02-11T04:32:42;78.35;;;40.70;;
61960;SDS011;47923;42.506;24.192;2023-02-11T04:35:07;84.15;;;40.40;;
61960;SDS011;47923;42.506;24.192;2023-02-11T04:37:33;80.95;;;39.92;;
61960;SDS011;47923;42.506;24.192;2023-02-11T04:39:59;74.35;;;35.70;;
61960;SDS011;47923;42.506;24.192;2023-02-11T04:42:25;78.25;;;38.90;;
61960;SDS011;47923;42.506;24.192;2023-02-11T04:44:50;65.75;;;36.35;;
61960;SDS011;47923;42.506;24.192;2023-02-11T04:47:16;64.47;;;34.30;;
61960;SDS011;47923;42.506;24.192;2023-02-11T04:49:42;73.88;;;37.75;;
61960;SDS011;47923;42.506;24.192;2023-02-11T04:52:07;63.50;;;34.80;;
61960;SDS011;47923;42.506;24.192;2023-02-11T04:54:33;80.75;;;41.55;;
61960;SDS011;47923;42.506;24.192;2023-02-11T04:56:58;118.57;;;54.88;;
61960;SDS011;47923;42.506;24.192;2023-02-11T04:59:24;84.95;;;41.65;;
61960;SDS011;47923;42.506;24.192;2023-02-11T05:01:49;70.72;;;36.85;;
61960;SDS011;47923;42.506;24.192;2023-02-11T05:04:15;73.50;;;36.15;;
61960;SDS011;47923;42.506;24.192;2023-02-11T05:06:40;177.02;;;85.40;;
61960;SDS011;47923;42.506;24.192;2023-02-11T05:09:06;163.82;;;84.55;;
61960;SDS011;47923;42.506;24.192;2023-02-11T05:11:31;123.18;;;68.20;;
61960;SDS011;47923;42.506;24.192;2023-02-11T05:13:57;131.98;;;71.00;;
61960;SDS011;47923;42.506;24.192;2023-02-11T05:16:23;119.35;;;60.53;;
61960;SDS011;47923;42.506;24.192;2023-02-11T05:18:48;94.50;;;52.17;;
61960;SDS011;47923;42.506;24.192;2023-02-11T05:21:15;86.03;;;48.42;;
61960;SDS011;47923;42.506;24.192;2023-02-11T05:23:42;91.55;;;50.28;;
61960;SDS011;47923;42.506;24.192;2023-02-11T05:26:09;80.65;;;44.42;;
61960;SDS011;47923;42.506;24.192;2023-02-11T05:28:35;94.50;;;51.67;;
61960;SDS011;47923;42.506;24.192;2023-02-11T05:31:01;96.93;;;53.85;;
61960;SDS011;47923;42.506;24.192;2023-02-11T05:33:26;98.43;;;54.70;;
61960;SDS011;47923;42.506;24.192;2023-02-11T05:35:57;151.45;;;79.93;;
61960;SDS011;47923;42.506;24.192;2023-02-11T05:38:24;148.48;;;80.03;;
61960;SDS011;47923;42.506;24.192;2023-02-11T05:40:50;137.15;;;74.88;;
61960;SDS011;47923;42.506;24.192;2023-02-11T05:43:15;134.13;;;71.53;;
61960;SDS011;47923;42.506;24.192;2023-02-11T05:45:41;115.20;;;65.07;;
61960;SDS011;47923;42.506;24.192;2023-02-11T05:48:06;104.38;;;58.30;;
61960;SDS011;47923;42.506;24.192;2023-02-11T05:50:31;109.63;;;64.03;;
61960;SDS011;47923;42.506;24.192;2023-02-11T05:52:57;83.05;;;48.80;;
61960;SDS011;47923;42.506;24.192;2023-02-11T05:55:22;84.30;;;46.33;;
61960;SDS011;47923;42.506;24.192;2023-02-11T05:57:47;70.78;;;42.25;;
61960;SDS011;47923;42.506;24.192;2023-02-11T06:00:13;90.50;;;52.22;;
61960;SDS011;47923;42.506;24.192;2023-02-11T06:02:39;84.35;;;48.78;;
61960;SDS011;47923;42.506;24.192;2023-02-11T06:05:05;70.38;;;44.85;;
61960;SDS011;47923;42.506;24.192;2023-02-11T06:07:30;79.63;;;47.42;;
61960;SDS011;47923;42.506;24.192;2023-02-11T06:09:56;77.13;;;47.70;;
61960;SDS011;47923;42.506;24.192;2023-02-11T06:12:21;75.75;;;45.00;;
61960;SDS011;47923;42.506;24.192;2023-02-11T06:14:47;74.93;;;46.33;;
61960;SDS011;47923;42.506;24.192;2023-02-11T06:17:13;130.70;;;81.50;;
61960;SDS011;47923;42.506;24.192;2023-02-11T06:19:38;113.63;;;70.03;;
61960;SDS011;47923;42.506;24.192;2023-02-11T06:22:03;130.13;;;81.00;;
61960;SDS011;47923;42.506;24.192;2023-02-11T06:24:29;110.47;;;67.72;;
61960;SDS011;47923;42.506;24.192;2023-02-11T06:26:54;106.78;;;64.22;;
61960;SDS011;47923;42.506;24.192;2023-02-11T06:29:20;81.25;;;53.83;;
61960;SDS011;47923;42.506;24.192;2023-02-11T06:31:45;74.85;;;44.78;;
61960;SDS011;47923;42.506;24.192;2023-02-11T06:34:10;83.10;;;53.10;;
61960;SDS011;47923;42.506;24.192;2023-02-11T06:36:37;115.57;;;75.55;;
61960;SDS011;47923;42.506;24.192;2023-02-11T06:39:04;113.57;;;73.53;;
61960;SDS011;47923;42.506;24.192;2023-02-11T06:41:29;102.60;;;57.17;;
61960;SDS011;47923;42.506;24.192;2023-02-11T06:43:55;84.72;;;48.05;;
61960;SDS011;47923;42.506;24.192;2023-02-11T06:46:20;65.10;;;38.75;;
61960;SDS011;47923;42.506;24.192;2023-02-11T06:48:46;62.92;;;39.70;;
61960;SDS011;47923;42.506;24.192;2023-02-11T06:51:12;74.07;;;50.88;;
61960;SDS011;47923;42.506;24.192;2023-02-11T06:53:39;77.68;;;52.30;;
61960;SDS011;47923;42.506;24.192;2023-02-11T06:56:11;116.70;;;78.10;;
61960;SDS011;47923;42.506;24.192;2023-02-11T06:58:38;180.15;;;125.43;;
61960;SDS011;47923;42.506;24.192;2023-02-11T07:01:05;197.60;;;141.02;;
61960;SDS011;47923;42.506;24.192;2023-02-11T07:03:36;169.20;;;122.32;;
61960;SDS011;47923;42.506;24.192;2023-02-11T07:06:03;222.38;;;141.30;;
61960;SDS011;47923;42.506;24.192;2023-02-11T07:08:34;101.53;;;77.50;;
61960;SDS011;47923;42.506;24.192;2023-02-11T07:11:00;92.75;;;68.00;;
61960;SDS011;47923;42.506;24.192;2023-02-11T07:13:32;95.35;;;70.45;;
61960;SDS011;47923;42.506;24.192;2023-02-11T07:15:57;104.63;;;79.57;;
61960;SDS011;47923;42.506;24.192;2023-02-11T07:18:23;113.85;;;83.97;;
61960;SDS011;47923;42.506;24.192;2023-02-11T07:20:48;161.55;;;118.70;;
61960;SDS011;47923;42.506;24.192;2023-02-11T07:23:14;120.65;;;91.90;;
61960;SDS011;47923;42.506;24.192;2023-02-11T07:25:39;132.10;;;102.60;;
61960;SDS011;47923;42.506;24.192;2023-02-11T07:28:05;189.52;;;144.63;;
61960;SDS011;47923;42.506;24.192;2023-02-11T07:30:30;126.03;;;94.90;;
61960;SDS011;47923;42.506;24.192;2023-02-11T07:32:56;119.18;;;91.80;;
61960;SDS011;47923;42.506;24.192;2023-02-11T07:35:21;114.22;;;86.80;;
61960;SDS011;47923;42.506;24.192;2023-02-11T07:37:47;111.05;;;86.30;;
61960;SDS011;47923;42.506;24.192;2023-02-11T07:40:12;112.13;;;81.03;;
61960;SDS011;47923;42.506;24.192;2023-02-11T07:42:37;96.88;;;75.88;;
61960;SDS011;47923;42.506;24.192;2023-02-11T07:45:05;97.22;;;78.10;;
61960;SDS011;47923;42.506;24.192;2023-02-11T07:47:30;99.70;;;77.72;;
61960;SDS011;47923;42.506;24.192;2023-02-11T07:49:56;96.38;;;77.55;;
61960;SDS011;47923;42.506;24.192;2023-02-11T07:52:21;99.82;;;82.00;;
61960;SDS011;47923;42.506;24.192;2023-02-11T07:54:47;113.03;;;91.30;;
61960;SDS011;47923;42.506;24.192;2023-02-11T07:57:12;113.30;;;91.32;;
61960;SDS011;47923;42.506;24.192;2023-02-11T07:59:38;119.60;;;96.45;;
61960;SDS011;47923;42.506;24.192;2023-02-11T08:02:03;155.10;;;127.65;;
61960;SDS011;47923;42.506;24.192;2023-02-11T08:04:29;106.22;;;90.75;;
61960;SDS011;47923;42.506;24.192;2023-02-11T08:06:55;110.18;;;97.93;;
61960;SDS011;47923;42.506;24.192;2023-02-11T08:09:22;108.72;;;93.60;;
61960;SDS011;47923;42.506;24.192;2023-02-11T08:11:48;119.05;;;101.55;;
61960;SDS011;47923;42.506;24.192;2023-02-11T08:14:14;120.97;;;100.30;;
61960;SDS011;47923;42.506;24.192;2023-02-11T08:16:40;112.43;;;99.15;;
61960;SDS011;47923;42.506;24.192;2023-02-11T08:19:06;98.35;;;81.82;;
61960;SDS011;47923;42.506;24.192;2023-02-11T08:21:35;82.60;;;66.65;;
61960;SDS011;47923;42.506;24.192;2023-02-11T08:24:01;52.20;;;43.72;;
61960;SDS011;47923;42.506;24.192;2023-02-11T08:26:28;38.88;;;32.38;;
61960;SDS011;47923;42.506;24.192;2023-02-11T08:28:56;18.13;;;14.45;;
61960;SDS011;47923;42.506;24.192;2023-02-11T08:33:52;40.88;;;34.88;;
61960;SDS011;47923;42.506;24.192;2023-02-11T08:36:20;39.03;;;34.83;;
61960;SDS011;47923;42.506;24.192;2023-02-11T08:38:47;39.75;;;33.38;;
61960;SDS011;47923;42.506;24.192;2023-02-11T08:41:14;45.90;;;35.00;;
61960;SDS011;47923;42.506;24.192;2023-02-11T08:43:43;27.75;;;19.15;;
61960;SDS011;47923;42.506;24.192;2023-02-11T08:46:11;25.45;;;20.50;;
61960;SDS011;47923;42.506;24.192;2023-02-11T08:48:39;28.20;;;22.67;;
61960;SDS011;47923;42.506;24.192;2023-02-11T08:51:05;26.60;;;20.67;;
61960;SDS011;47923;42.506;24.192;2023-02-11T08:53:32;29.65;;;22.75;;
61960;SDS011;47923;42.506;24.192;2023-02-11T08:55:58;30.73;;;21.40;;
61960;SDS011;47923;42.506;24.192;2023-02-11T08:58:23;26.77;;;20.45;;
61960;SDS011;47923;42.506;24.192;2023-02-11T09:00:49;27.58;;;19.80;;
61960;SDS011;47923;42.506;24.192;2023-02-11T09:03:15;27.17;;;20.17;;
61960;SDS011;47923;42.506;24.192;2023-02-11T09:05:41;21.27;;;17.67;;
61960;SDS011;47923;42.506;24.192;2023-02-11T09:08:07;22.95;;;16.15;;
61960;SDS011;47923;42.506;24.192;2023-02-11T09:10:33;20.58;;;14.57;;
61960;SDS011;47923;42.506;24.192;2023-02-11T09:12:59;23.92;;;18.13;;
61960;SDS011;47923;42.506;24.192;2023-02-11T09:15:25;22.88;;;16.90;;
61960;SDS011;47923;42.506;24.192;2023-02-11T09:17:50;17.83;;;13.63;;
61960;SDS011;47923;42.506;24.192;2023-02-11T09:20:16;21.23;;;16.63;;
61960;SDS011;47923;42.506;24.192;2023-02-11T09:22:41;13.55;;;8.00;;
61960;SDS011;47923;42.506;24.192;2023-02-11T09:25:07;12.85;;;7.72;;
61960;SDS011;47923;42.506;24.192;2023-02-11T09:27:33;14.65;;;8.57;;
61960;SDS011;47923;42.506;24.192;2023-02-11T09:29:58;18.15;;;11.55;;
61960;SDS011;47923;42.506;24.192;2023-02-11T09:32:24;12.50;;;9.30;;
61960;SDS011;47923;42.506;24.192;2023-02-11T09:34:49;11.93;;;8.57;;
61960;SDS011;47923;42.506;24.192;2023-02-11T09:37:14;16.33;;;7.85;;
61960;SDS011;47923;42.506;24.192;2023-02-11T09:39:40;15.55;;;9.40;;
61960;SDS011;47923;42.506;24.192;2023-02-11T09:45:14;16.33;;;10.38;;
61960;SDS011;47923;42.506;24.192;2023-02-11T09:50:31;16.23;;;9.85;;
61960;SDS011;47923;42.506;24.192;2023-02-11T09:53:10;17.77;;;9.82;;
61960;SDS011;47923;42.506;24.192;2023-02-11T09:55:42;13.88;;;8.52;;
61960;SDS011;47923;42.506;24.192;2023-02-11T09:58:15;16.25;;;9.52;;
61960;SDS011;47923;42.506;24.192;2023-02-11T10:00:52;12.80;;;8.73;;
61960;SDS011;47923;42.506;24.192;2023-02-11T10:24:28;12.00;;;6.97;;
61960;SDS011;47923;42.506;24.192;2023-02-11T10:26:54;12.60;;;7.93;;
61960;SDS011;47923;42.506;24.192;2023-02-11T10:29:36;15.32;;;9.60;;
61960;SDS011;47923;42.506;24.192;2023-02-11T10:32:08;13.82;;;8.45;;
61960;SDS011;47923;42.506;24.192;2023-02-11T10:34:55;13.07;;;8.93;;
61960;SDS011;47923;42.506;24.192;2023-02-11T10:37:25;13.93;;;9.00;;
61960;SDS011;47923;42.506;24.192;2023-02-11T10:39:51;16.60;;;8.82;;
61960;SDS011;47923;42.506;24.192;2023-02-11T10:42:16;10.90;;;7.32;;
61960;SDS011;47923;42.506;24.192;2023-02-11T10:44:47;11.57;;;7.00;;
61960;SDS011;47923;42.506;24.192;2023-02-11T10:47:21;11.60;;;7.22;;
61960;SDS011;47923;42.506;24.192;2023-02-11T10:49:49;11.05;;;7.50;;
61960;SDS011;47923;42.506;24.192;2023-02-11T11:03:02;14.13;;;8.90;;
61960;SDS011;47923;42.506;24.192;2023-02-11T11:05:34;20.45;;;15.90;;
61960;SDS011;47923;42.506;24.192;2023-02-11T11:08:09;12.27;;;7.38;;
61960;SDS011;47923;42.506;24.192;2023-02-11T11:10:40;12.45;;;7.57;;
61960;SDS011;47923;42.506;24.192;2023-02-11T11:18:36;10.95;;;6.18;;
61960;SDS011;47923;42.506;24.192;2023-02-11T11:21:19;10.60;;;7.00;;
61960;SDS011;47923;42.506;24.192;2023-02-11T11:23:49;11.55;;;7.22;;
61960;SDS011;47923;42.506;24.192;2023-02-11T11:26:17;10.38;;;6.50;;
61960;SDS011;47923;42.506;24.192;2023-02-11T11:29:00;13.63;;;6.18;;
61960;SDS011;47923;42.506;24.192;2023-02-11T11:31:32;28.30;;;7.38;;
61960;SDS011;47923;42.506;24.192;2023-02-11T11:34:19;8.93;;;5.45;;
61960;SDS011;47923;42.506;24.192;2023-02-11T11:36:48;12.02;;;7.10;;
61960;SDS011;47923;42.506;24.192;2023-02-11T11:39:19;12.65;;;8.05;;
61960;SDS011;47923;42.506;24.192;2023-02-11T11:44:26;13.23;;;9.20;;
61960;SDS011;47923;42.506;24.192;2023-02-11T11:47:11;13.82;;;8.45;;
61960;SDS011;47923;42.506;24.192;2023-02-11T11:49:55;15.93;;;10.07;;
61960;SDS011;47923;42.506;24.192;2023-02-11T11:52:40;16.35;;;10.80;;
61960;SDS011;47923;42.506;24.192;2023-02-11T11:55:17;27.23;;;17.80;;
61960;SDS011;47923;42.506;24.192;2023-02-11T11:58:09;25.98;;;18.85;;
61960;SDS011;47923;42.506;24.192;2023-02-11T12:01:01;13.90;;;9.15;;
61960;SDS011;47923;42.506;24.192;2023-02-11T12:03:42;13.32;;;8.57;;
61960;SDS011;47923;42.506;24.192;2023-02-11T12:09:14;12.13;;;7.70;;
61960;SDS011;47923;42.506;24.192;2023-02-11T12:17:13;11.88;;;7.50;;
61960;SDS011;47923;42.506;24.192;2023-02-11T12:22:46;21.20;;;14.65;;
61960;SDS011;47923;42.506;24.192;2023-02-11T12:25:25;13.98;;;7.13;;
61960;SDS011;47923;42.506;24.192;2023-02-11T12:36:40;15.15;;;9.63;;
61960;SDS011;47923;42.506;24.192;2023-02-11T12:39:39;17.73;;;11.63;;
61960;SDS011;47923;42.506;24.192;2023-02-11T12:42:23;18.52;;;10.93;;
61960;SDS011;47923;42.506;24.192;2023-02-11T12:45:16;20.60;;;11.98;;
61960;SDS011;47923;42.506;24.192;2023-02-11T12:55:47;19.60;;;12.13;;
61960;SDS011;47923;42.506;24.192;2023-02-11T12:58:20;15.90;;;10.00;;
61960;SDS011;47923;42.506;24.192;2023-02-11T13:00:51;19.25;;;11.77;;
61960;SDS011;47923;42.506;24.192;2023-02-11T13:03:23;17.15;;;9.57;;
61960;SDS011;47923;42.506;24.192;2023-02-11T13:05:59;15.02;;;9.32;;
61960;SDS011;47923;42.506;24.192;2023-02-11T13:08:30;19.73;;;11.75;;
61960;SDS011;47923;42.506;24.192;2023-02-11T13:10:59;23.23;;;14.23;;
61960;SDS011;47923;42.506;24.192;2023-02-11T13:13:32;19.52;;;11.88;;
61960;SDS011;47923;42.506;24.192;2023-02-11T13:16:04;23.13;;;12.63;;
61960;SDS011;47923;42.506;24.192;2023-02-11T13:21:46;18.48;;;10.90;;
61960;SDS011;47923;42.506;24.192;2023-02-11T13:29:29;18.45;;;10.57;;
61960;SDS011;47923;42.506;24.192;2023-02-11T13:32:08;20.88;;;11.68;;
61960;SDS011;47923;42.506;24.192;2023-02-11T13:45:36;19.33;;;11.82;;
61960;SDS011;47923;42.506;24.192;2023-02-11T13:48:19;23.42;;;12.25;;
61960;SDS011;47923;42.506;24.192;2023-02-11T13:50:49;16.48;;;9.57;;
61960;SDS011;47923;42.506;24.192;2023-02-11T13:53:17;18.10;;;9.68;;
61960;SDS011;47923;42.506;24.192;2023-02-11T13:55:46;20.80;;;10.82;;
61960;SDS011;47923;42.506;24.192;2023-02-11T13:58:32;21.33;;;12.10;;
61960;SDS011;47923;42.506;24.192;2023-02-11T14:01:01;17.90;;;9.77;;
61960;SDS011;47923;42.506;24.192;2023-02-11T14:03:30;27.00;;;12.07;;
61960;SDS011;47923;42.506;24.192;2023-02-11T14:06:21;25.20;;;12.77;;
61960;SDS011;47923;42.506;24.192;2023-02-11T14:14:14;20.95;;;12.57;;
61960;SDS011;47923;42.506;24.192;2023-02-11T14:17:16;18.90;;;10.38;;
61960;SDS011;47923;42.506;24.192;2023-02-11T14:19:35;31.20;;;15.25;;
61960;SDS011;47923;42.506;24.192;2023-02-11T14:24:54;25.17;;;13.15;;
61960;SDS011;47923;42.506;24.192;2023-02-11T14:30:17;22.38;;;11.20;;
61960;SDS011;47923;42.506;24.192;2023-02-11T14:33:34;17.98;;;10.63;;
61960;SDS011;47923;42.506;24.192;2023-02-11T14:39:07;28.85;;;11.98;;
61960;SDS011;47923;42.506;24.192;2023-02-11T14:41:38;18.85;;;9.73;;
61960;SDS011;47923;42.506;24.192;2023-02-11T14:44:14;20.58;;;10.60;;
61960;SDS011;47923;42.506;24.192;2023-02-11T14:46:49;20.15;;;10.60;;
61960;SDS011;47923;42.506;24.192;2023-02-11T14:49:25;22.98;;;12.25;;
61960;SDS011;47923;42.506;24.192;2023-02-11T14:51:55;24.10;;;12.35;;
61960;SDS011;47923;42.506;24.192;2023-02-11T14:54:25;22.20;;;12.68;;
61960;SDS011;47923;42.506;24.192;2023-02-11T14:59:31;25.35;;;13.32;;
61960;SDS011;47923;42.506;24.192;2023-02-11T15:01:56;26.95;;;13.68;;
61960;SDS011;47923;42.506;24.192;2023-02-11T15:04:28;24.27;;;13.73;;
61960;SDS011;47923;42.506;24.192;2023-02-11T15:06:57;32.53;;;16.48;;
61960;SDS011;47923;42.506;24.192;2023-02-11T15:09:41;31.08;;;18.27;;
61960;SDS011;47923;42.506;24.192;2023-02-11T15:12:14;27.38;;;17.20;;
61960;SDS011;47923;42.506;24.192;2023-02-11T15:14:44;31.58;;;16.52;;
61960;SDS011;47923;42.506;24.192;2023-02-11T15:17:13;30.95;;;17.73;;
61960;SDS011;47923;42.506;24.192;2023-02-11T15:19:44;32.25;;;17.55;;
61960;SDS011;47923;42.506;24.192;2023-02-11T15:22:16;35.15;;;17.65;;
61960;SDS011;47923;42.506;24.192;2023-02-11T15:27:41;39.90;;;19.25;;
61960;SDS011;47923;42.506;24.192;2023-02-11T15:30:54;28.98;;;14.13;;
61960;SDS011;47923;42.506;24.192;2023-02-11T15:33:01;30.38;;;14.00;;
61960;SDS011;47923;42.506;24.192;2023-02-11T15:35:31;25.92;;;13.63;;
61960;SDS011;47923;42.506;24.192;2023-02-11T15:37:59;27.10;;;12.50;;
61960;SDS011;47923;42.506;24.192;2023-02-11T15:40:26;28.38;;;14.40;;
61960;SDS011;47923;42.506;24.192;2023-02-11T15:45:33;47.45;;;26.30;;
61960;SDS011;47923;42.506;24.192;2023-02-11T15:48:11;44.97;;;25.08;;
61960;SDS011;47923;42.506;24.192;2023-02-11T15:50:47;51.65;;;27.08;;
61960;SDS011;47923;42.506;24.192;2023-02-11T15:58:55;33.28;;;20.30;;
61960;SDS011;47923;42.506;24.192;2023-02-11T16:01:30;41.55;;;23.63;;
61960;SDS011;47923;42.506;24.192;2023-02-11T16:03:57;36.60;;;20.75;;
61960;SDS011;47923;42.506;24.192;2023-02-11T16:06:34;40.25;;;22.40;;
61960;SDS011;47923;42.506;24.192;2023-02-11T16:09:03;34.55;;;19.90;;
61960;SDS011;47923;42.506;24.192;2023-02-11T16:11:33;103.13;;;49.47;;
61960;SDS011;47923;42.506;24.192;2023-02-11T16:14:00;130.13;;;63.72;;
61960;SDS011;47923;42.506;24.192;2023-02-11T16:16:42;77.15;;;47.65;;
61960;SDS011;47923;42.506;24.192;2023-02-11T16:19:13;78.57;;;45.97;;
61960;SDS011;47923;42.506;24.192;2023-02-11T16:21:44;50.13;;;32.83;;
61960;SDS011;47923;42.506;24.192;2023-02-11T16:24:16;125.40;;;67.80;;
61960;SDS011;47923;42.506;24.192;2023-02-11T16:26:46;128.40;;;70.60;;
61960;SDS011;47923;42.506;24.192;2023-02-11T16:29:16;65.45;;;36.83;;
61960;SDS011;47923;42.506;24.192;2023-02-11T16:31:46;70.15;;;37.75;;
61960;SDS011;47923;42.506;24.192;2023-02-11T16:34:19;36.20;;;20.67;;
61960;SDS011;47923;42.506;24.192;2023-02-11T16:36:46;81.88;;;48.60;;
61960;SDS011;47923;42.506;24.192;2023-02-11T16:39:14;70.18;;;41.50;;
61960;SDS011;47923;42.506;24.192;2023-02-11T16:41:41;110.88;;;59.60;;
61960;SDS011;47923;42.506;24.192;2023-02-11T16:44:07;75.53;;;45.90;;
61960;SDS011;47923;42.506;24.192;2023-02-11T16:46:33;72.88;;;42.17;;
61960;SDS011;47923;42.506;24.192;2023-02-11T16:49:05;183.23;;;105.35;;
61960;SDS011;47923;42.506;24.192;2023-02-11T16:51:36;118.85;;;71.22;;
61960;SDS011;47923;42.506;24.192;2023-02-11T16:54:03;83.78;;;48.50;;
61960;SDS011;47923;42.506;24.192;2023-02-11T16:56:29;90.03;;;49.10;;
61960;SDS011;47923;42.506;24.192;2023-02-11T16:58:54;66.53;;;41.13;;